sensor_id;sensor_type;location;lat;lon;timestamp;pressure;altitude;pressure_sealevel;temperature;humidity
59789;BME280;47353;51.614;5.530;2023-02-14T08:11:31;103303.28;;;2.53;100.00
59789;BME280;47353;51.614;5.530;2023-02-14T08:14:15;103304.03;;;2.71;100.00
59789;BME280;47353;51.614;5.530;2023-02-14T08:16:40;103309.88;;;2.92;100.00
59789;BME280;47353;51.614;5.530;2023-02-14T08:19:06;103301.56;;;3.09;100.00
59789;BME280;47353;51.614;5.530;2023-02-14T08:21:31;103305.03;;;3.35;100.00
59789;BME280;47353;51.614;5.530;2023-02-14T08:23:57;103305.03;;;3.52;100.00
59789;BME280;47353;51.614;5.530;2023-02-14T08:26:22;103301.25;;;3.69;100.00
59789;BME280;47353;51.614;5.530;2023-02-14T08:28:48;103305.13;;;4.06;100.00
59789;BME280;47353;51.614;5.530;2023-02-14T08:31:22;103308.47;;;4.40;100.00
59789;BME280;47353;51.614;5.530;2023-02-14T08:33:48;103304.69;;;4.80;100.00
59789;BME280;47353;51.614;5.530;2023-02-14T08:36:13;103304.22;;;5.30;100.00
59789;BME280;47353;51.614;5.530;2023-02-14T08:38:42;103299.91;;;5.72;100.00
59789;BME280;47353;51.614;5.530;2023-02-14T08:41:09;103306.50;;;6.23;100.00
59789;BME280;47353;51.614;5.530;2023-02-14T08:43:35;103304.00;;;6.71;100.00
59789;BME280;47353;51.614;5.530;2023-02-14T08:46:00;103311.59;;;7.20;98.85
59789;BME280;47353;51.614;5.530;2023-02-14T08:48:26;103312.19;;;7.36;94.39
59789;BME280;47353;51.614;5.530;2023-02-14T08:50:51;103308.13;;;7.53;95.28
59789;BME280;47353;51.614;5.530;2023-02-14T08:53:16;103308.91;;;7.89;93.63
59789;BME280;47353;51.614;5.530;2023-02-14T08:55:42;103295.38;;;8.22;91.44
59789;BME280;47353;51.614;5.530;2023-02-14T08:58:07;103309.94;;;8.78;88.53
59789;BME280;47353;51.614;5.530;2023-02-14T09:00:33;103305.00;;;9.20;85.23
59789;BME280;47353;51.614;5.530;2023-02-14T09:02:59;103317.88;;;9.67;82.48
59789;BME280;47353;51.614;5.530;2023-02-14T09:05:25;103303.84;;;10.07;77.87
59789;BME280;47353;51.614;5.530;2023-02-14T09:07:51;103305.69;;;10.59;76.50
59789;BME280;47353;51.614;5.530;2023-02-14T09:10:17;103311.50;;;11.02;72.47
59789;BME280;47353;51.614;5.530;2023-02-14T09:12:43;103311.81;;;11.62;71.00
59789;BME280;47353;51.614;5.530;2023-02-14T09:15:10;103318.59;;;11.98;66.50
59789;BME280;47353;51.614;5.530;2023-02-14T09:17:37;103315.19;;;12.63;64.46
59789;BME280;47353;51.614;5.530;2023-02-14T09:20:04;103317.03;;;12.69;62.23
59789;BME280;47353;51.614;5.530;2023-02-14T09:22:32;103303.84;;;13.00;60.43
59789;BME280;47353;51.614;5.530;2023-02-14T09:24:58;103306.66;;;13.30;59.16
59789;BME280;47353;51.614;5.530;2023-02-14T09:27:23;103310.28;;;13.60;57.96
59789;BME280;47353;51.614;5.530;2023-02-14T09:29:49;103305.84;;;13.82;58.51
59789;BME280;47353;51.614;5.530;2023-02-14T09:32:14;103306.72;;;14.17;57.04
59789;BME280;47353;51.614;5.530;2023-02-14T09:34:40;103306.16;;;14.61;53.98
59789;BME280;47353;51.614;5.530;2023-02-14T09:37:05;103307.56;;;14.98;52.85
59789;BME280;47353;51.614;5.530;2023-02-14T09:39:49;103309.44;;;15.77;55.22
59789;BME280;47353;51.614;5.530;2023-02-14T09:42:31;103313.81;;;15.73;52.92
59789;BME280;47353;51.614;5.530;2023-02-14T09:45:11;103311.97;;;15.79;49.55
59789;BME280;47353;51.614;5.530;2023-02-14T09:47:58;103304.78;;;15.83;51.07
59789;BME280;47353;51.614;5.530;2023-02-14T09:50:51;103302.31;;;15.70;51.96
59789;BME280;47353;51.614;5.530;2023-02-14T09:53:21;103305.72;;;15.44;48.82
59789;BME280;47353;51.614;5.530;2023-02-14T09:56:05;103307.41;;;15.73;50.51
59789;BME280;47353;51.614;5.530;2023-02-14T09:58:35;103300.66;;;15.85;48.88
59789;BME280;47353;51.614;5.530;2023-02-14T10:01:16;103301.41;;;16.14;49.52
59789;BME280;47353;51.614;5.530;2023-02-14T10:06:47;103294.84;;;16.96;46.86
59789;BME280;47353;51.614;5.530;2023-02-14T10:11:47;103298.09;;;17.58;43.06
59789;BME280;47353;51.614;5.530;2023-02-14T10:14:16;103297.69;;;18.02;43.41
59789;BME280;47353;51.614;5.530;2023-02-14T10:16:50;103292.88;;;17.98;43.90
59789;BME280;47353;51.614;5.530;2023-02-14T10:21:58;103288.66;;;18.69;41.32
59789;BME280;47353;51.614;5.530;2023-02-14T10:24:39;103295.16;;;19.51;41.27
59789;BME280;47353;51.614;5.530;2023-02-14T10:27:29;103295.19;;;19.61;39.88
59789;BME280;47353;51.614;5.530;2023-02-14T10:29:56;103289.31;;;19.52;38.54
59789;BME280;47353;51.614;5.530;2023-02-14T10:32:40;103282.31;;;19.90;39.05
59789;BME280;47353;51.614;5.530;2023-02-14T10:43:35;103278.63;;;20.55;36.93
59789;BME280;47353;51.614;5.530;2023-02-14T10:46:39;103277.47;;;20.66;38.06
59789;BME280;47353;51.614;5.530;2023-02-14T10:54:53;103260.66;;;21.14;38.04
59789;BME280;47353;51.614;5.530;2023-02-14T10:57:27;103263.09;;;20.77;35.61
59789;BME280;47353;51.614;5.530;2023-02-14T11:00:06;103270.31;;;21.03;36.58
59789;BME280;47353;51.614;5.530;2023-02-14T11:02:38;103269.66;;;21.21;34.90
59789;BME280;47353;51.614;5.530;2023-02-14T11:05:06;103270.03;;;20.95;34.33
59789;BME280;47353;51.614;5.530;2023-02-14T11:07:32;103270.75;;;20.47;35.00
59789;BME280;47353;51.614;5.530;2023-02-14T11:09:58;103260.81;;;20.74;34.08
59789;BME280;47353;51.614;5.530;2023-02-14T11:12:35;103247.03;;;20.78;35.44
59789;BME280;47353;51.614;5.530;2023-02-14T11:15:34;103255.16;;;20.84;35.45
59789;BME280;47353;51.614;5.530;2023-02-14T11:18:23;103251.91;;;21.21;34.66
59789;BME280;47353;51.614;5.530;2023-02-14T11:21:18;103246.63;;;21.53;33.35
59789;BME280;47353;51.614;5.530;2023-02-14T11:23:49;103254.84;;;21.01;33.22
59789;BME280;47353;51.614;5.530;2023-02-14T11:26:21;103255.97;;;20.90;34.04
59789;BME280;47353;51.614;5.530;2023-02-14T11:29:03;103242.28;;;21.32;34.53
59789;BME280;47353;51.614;5.530;2023-02-14T11:31:36;103236.06;;;22.07;31.48
59789;BME280;47353;51.614;5.530;2023-02-14T11:34:23;103243.03;;;22.15;32.20
59789;BME280;47353;51.614;5.530;2023-02-14T11:36:51;103228.94;;;22.15;30.89
59789;BME280;47353;51.614;5.530;2023-02-14T11:39:30;103226.38;;;22.18;31.14
59789;BME280;47353;51.614;5.530;2023-02-14T11:42:02;103233.84;;;22.04;31.29
59789;BME280;47353;51.614;5.530;2023-02-14T11:44:30;103220.75;;;22.42;30.69
59789;BME280;47353;51.614;5.530;2023-02-14T11:47:16;103215.28;;;21.98;32.36
59789;BME280;47353;51.614;5.530;2023-02-14T11:49:54;103207.63;;;22.04;32.13
59789;BME280;47353;51.614;5.530;2023-02-14T11:52:20;103214.31;;;22.65;30.73
59789;BME280;47353;51.614;5.530;2023-02-14T11:54:51;103205.28;;;23.47;29.73
59789;BME280;47353;51.614;5.530;2023-02-14T11:59:47;103189.91;;;24.99;27.65
59789;BME280;47353;51.614;5.530;2023-02-14T12:02:31;103189.72;;;25.44;28.18
59789;BME280;47353;51.614;5.530;2023-02-14T12:05:04;103185.69;;;25.10;27.18
59789;BME280;47353;51.614;5.530;2023-02-14T12:07:35;103178.06;;;25.46;27.88
59789;BME280;47353;51.614;5.530;2023-02-14T12:15:30;103179.94;;;25.72;25.96
59789;BME280;47353;51.614;5.530;2023-02-14T12:21:26;103162.81;;;25.55;26.54
59789;BME280;47353;51.614;5.530;2023-02-14T12:26:37;103157.38;;;26.20;25.70
59789;BME280;47353;51.614;5.530;2023-02-14T12:31:55;103151.66;;;27.24;24.15
59789;BME280;47353;51.614;5.530;2023-02-14T12:34:23;103150.19;;;27.26;24.52
59789;BME280;47353;51.614;5.530;2023-02-14T12:37:08;103152.16;;;27.77;24.92
59789;BME280;47353;51.614;5.530;2023-02-14T12:42:44;103147.47;;;28.94;23.12
59789;BME280;47353;51.614;5.530;2023-02-14T12:56:19;103115.19;;;29.64;21.45
59789;BME280;47353;51.614;5.530;2023-02-14T13:06:33;103097.63;;;29.74;22.17
59789;BME280;47353;51.614;5.530;2023-02-14T13:22:24;103077.16;;;28.77;21.41
59789;BME280;47353;51.614;5.530;2023-02-14T13:24:54;103080.97;;;28.61;21.89
59789;BME280;47353;51.614;5.530;2023-02-14T13:27:23;103067.84;;;28.68;21.79
59789;BME280;47353;51.614;5.530;2023-02-14T13:29:57;103073.78;;;28.55;21.12
59789;BME280;47353;51.614;5.530;2023-02-14T13:32:29;103067.00;;;28.10;21.91
59789;BME280;47353;51.614;5.530;2023-02-14T13:34:56;103061.16;;;28.64;22.27
59789;BME280;47353;51.614;5.530;2023-02-14T13:37:24;103061.81;;;27.40;22.71
59789;BME280;47353;51.614;5.530;2023-02-14T13:53:13;103037.72;;;27.54;23.03
59789;BME280;47353;51.614;5.530;2023-02-14T13:55:52;103040.97;;;27.82;22.43
59789;BME280;47353;51.614;5.530;2023-02-14T13:58:20;103034.91;;;27.37;22.79
59789;BME280;47353;51.614;5.530;2023-02-14T14:00:47;103036.75;;;27.80;22.57
59789;BME280;47353;51.614;5.530;2023-02-14T14:05:48;103029.34;;;27.24;23.12
59789;BME280;47353;51.614;5.530;2023-02-14T14:10:47;103033.72;;;27.93;22.43
59789;BME280;47353;51.614;5.530;2023-02-14T14:18:51;103028.03;;;27.38;21.96
59789;BME280;47353;51.614;5.530;2023-02-14T14:21:33;103022.38;;;27.04;23.57
59789;BME280;47353;51.614;5.530;2023-02-14T14:24:22;103018.03;;;26.81;23.71
59789;BME280;47353;51.614;5.530;2023-02-14T14:26:58;103016.84;;;26.82;23.51
59789;BME280;47353;51.614;5.530;2023-02-14T14:29:26;103015.84;;;27.12;22.94
59789;BME280;47353;51.614;5.530;2023-02-14T14:31:53;103011.28;;;26.52;23.12
59789;BME280;47353;51.614;5.530;2023-02-14T14:34:25;103010.16;;;26.70;23.53
59789;BME280;47353;51.614;5.530;2023-02-14T14:37:15;103019.69;;;26.99;23.93
59789;BME280;47353;51.614;5.530;2023-02-14T14:39:40;103018.81;;;26.56;23.30
59789;BME280;47353;51.614;5.530;2023-02-14T14:42:14;103011.47;;;26.55;23.92
59789;BME280;47353;51.614;5.530;2023-02-14T14:44:52;103007.91;;;26.24;24.16
59789;BME280;47353;51.614;5.530;2023-02-14T14:47:24;103000.19;;;25.38;24.96
59789;BME280;47353;51.614;5.530;2023-02-14T14:49:52;102997.72;;;24.79;25.07
59789;BME280;47353;51.614;5.530;2023-02-14T14:52:28;103000.56;;;25.01;25.47
59789;BME280;47353;51.614;5.530;2023-02-14T14:54:55;102996.88;;;25.44;24.99
59789;BME280;47353;51.614;5.530;2023-02-14T14:57:21;102987.28;;;25.10;25.24
59789;BME280;47353;51.614;5.530;2023-02-14T14:59:46;102997.38;;;24.94;24.91
59789;BME280;47353;51.614;5.530;2023-02-14T15:02:26;102995.50;;;24.53;25.90
59789;BME280;47353;51.614;5.530;2023-02-14T15:04:52;102989.34;;;23.57;26.84
59789;BME280;47353;51.614;5.530;2023-02-14T15:07:33;102996.09;;;23.74;27.14
59789;BME280;47353;51.614;5.530;2023-02-14T15:10:00;102992.22;;;23.70;27.21
59789;BME280;47353;51.614;5.530;2023-02-14T15:12:27;102985.09;;;23.59;27.03
59789;BME280;47353;51.614;5.530;2023-02-14T15:15:15;102997.56;;;24.12;26.52
59789;BME280;47353;51.614;5.530;2023-02-14T15:17:41;102995.41;;;24.45;26.31
59789;BME280;47353;51.614;5.530;2023-02-14T15:20:16;102994.16;;;24.37;26.10
59789;BME280;47353;51.614;5.530;2023-02-14T15:22:44;102992.44;;;24.14;26.30
59789;BME280;47353;51.614;5.530;2023-02-14T15:25:16;102992.94;;;24.03;27.33
59789;BME280;47353;51.614;5.530;2023-02-14T15:27:43;102984.28;;;23.99;26.61
59789;BME280;47353;51.614;5.530;2023-02-14T15:32:43;102987.28;;;24.16;26.85
59789;BME280;47353;51.614;5.530;2023-02-14T15:35:09;102982.16;;;23.91;26.72
59789;BME280;47353;51.614;5.530;2023-02-14T15:37:37;103002.53;;;23.48;27.30
59789;BME280;47353;51.614;5.530;2023-02-14T15:40:03;102990.94;;;23.17;27.64
59789;BME280;47353;51.614;5.530;2023-02-14T15:42:33;102982.38;;;23.22;28.26
59789;BME280;47353;51.614;5.530;2023-02-14T15:45:28;102983.91;;;23.33;28.35
59789;BME280;47353;51.614;5.530;2023-02-14T15:48:19;102981.84;;;23.20;28.44
59789;BME280;47353;51.614;5.530;2023-02-14T15:50:50;102985.75;;;23.24;28.06
59789;BME280;47353;51.614;5.530;2023-02-14T15:56:21;102976.47;;;22.54;28.70
59789;BME280;47353;51.614;5.530;2023-02-14T15:58:56;102975.75;;;22.44;29.00
59789;BME280;47353;51.614;5.530;2023-02-14T16:01:22;102973.94;;;22.34;29.32
59789;BME280;47353;51.614;5.530;2023-02-14T16:03:51;102967.94;;;21.75;29.58
59789;BME280;47353;51.614;5.530;2023-02-14T16:06:37;102960.56;;;21.27;30.59
59789;BME280;47353;51.614;5.530;2023-02-14T16:09:06;102969.41;;;20.48;32.16
59789;BME280;47353;51.614;5.530;2023-02-14T16:11:46;102961.75;;;20.10;32.17
59789;BME280;47353;51.614;5.530;2023-02-14T16:19:39;102971.41;;;17.42;37.20
59789;BME280;47353;51.614;5.530;2023-02-14T16:22:07;102970.22;;;16.91;38.59
59789;BME280;47353;51.614;5.530;2023-02-14T16:24:33;102957.31;;;16.27;39.98
59789;BME280;47353;51.614;5.530;2023-02-14T16:27:00;102965.47;;;16.07;40.52
59789;BME280;47353;51.614;5.530;2023-02-14T16:29:31;102961.06;;;15.68;41.84
59789;BME280;47353;51.614;5.530;2023-02-14T16:31:57;102971.84;;;15.59;42.44
59789;BME280;47353;51.614;5.530;2023-02-14T16:34:25;102962.13;;;15.24;43.48
59789;BME280;47353;51.614;5.530;2023-02-14T16:36:51;102968.38;;;15.14;43.62
59789;BME280;47353;51.614;5.530;2023-02-14T16:39:21;102969.41;;;14.91;44.16
59789;BME280;47353;51.614;5.530;2023-02-14T16:41:52;102967.63;;;14.69;45.15
59789;BME280;47353;51.614;5.530;2023-02-14T16:44:18;102963.06;;;14.63;45.55
59789;BME280;47353;51.614;5.530;2023-02-14T16:46:45;102965.03;;;14.34;45.90
59789;BME280;47353;51.614;5.530;2023-02-14T16:49:13;102958.50;;;14.12;46.59
59789;BME280;47353;51.614;5.530;2023-02-14T16:51:42;102954.44;;;13.92;46.92
59789;BME280;47353;51.614;5.530;2023-02-14T16:54:15;102954.50;;;13.80;47.25
59789;BME280;47353;51.614;5.530;2023-02-14T16:56:50;102963.81;;;13.74;48.04
59789;BME280;47353;51.614;5.530;2023-02-14T16:59:17;102962.06;;;13.57;48.34
59789;BME280;47353;51.614;5.530;2023-02-14T17:01:42;102963.06;;;13.51;48.60
59789;BME280;47353;51.614;5.530;2023-02-14T17:04:08;102964.28;;;13.31;48.92
59789;BME280;47353;51.614;5.530;2023-02-14T17:06:36;102966.22;;;13.31;49.08
59789;BME280;47353;51.614;5.530;2023-02-14T17:09:05;102969.00;;;13.31;49.46
59789;BME280;47353;51.614;5.530;2023-02-14T17:11:37;102963.19;;;13.09;50.52
59789;BME280;47353;51.614;5.530;2023-02-14T17:14:04;102970.19;;;12.89;50.82
59789;BME280;47353;51.614;5.530;2023-02-14T17:16:30;102973.44;;;12.74;51.60
59789;BME280;47353;51.614;5.530;2023-02-14T17:18:56;102974.63;;;12.67;52.07
59789;BME280;47353;51.614;5.530;2023-02-14T17:21:22;102975.31;;;12.39;52.96
59789;BME280;47353;51.614;5.530;2023-02-14T17:23:48;102974.91;;;12.24;54.20
59789;BME280;47353;51.614;5.530;2023-02-14T17:26:14;102977.47;;;12.08;54.69
59789;BME280;47353;51.614;5.530;2023-02-14T17:28:41;102975.97;;;11.94;54.55
59789;BME280;47353;51.614;5.530;2023-02-14T17:31:07;102981.47;;;11.82;55.32
59789;BME280;47353;51.614;5.530;2023-02-14T17:33:33;102977.16;;;11.68;56.23
59789;BME280;47353;51.614;5.530;2023-02-14T17:36:06;102981.72;;;11.62;56.70
59789;BME280;47353;51.614;5.530;2023-02-14T17:38:33;102983.16;;;11.47;57.18
59789;BME280;47353;51.614;5.530;2023-02-14T17:40:59;102989.13;;;11.26;58.09
59789;BME280;47353;51.614;5.530;2023-02-14T17:43:24;102988.19;;;11.14;58.50
59789;BME280;47353;51.614;5.530;2023-02-14T17:45:49;102992.69;;;11.15;58.95
59789;BME280;47353;51.614;5.530;2023-02-14T17:48:15;102970.22;;;10.98;59.17
59789;BME280;47353;51.614;5.530;2023-02-14T17:50:40;102988.47;;;11.06;59.19
59789;BME280;47353;51.614;5.530;2023-02-14T17:53:05;102981.94;;;11.00;59.07
59789;BME280;47353;51.614;5.530;2023-02-14T17:55:31;102978.47;;;11.05;59.33
59789;BME280;47353;51.614;5.530;2023-02-14T17:57:56;102982.38;;;10.79;60.08
59789;BME280;47353;51.614;5.530;2023-02-14T18:00:22;102971.84;;;10.63;60.03
59789;BME280;47353;51.614;5.530;2023-02-14T18:02:48;102981.50;;;10.54;61.14
59789;BME280;47353;51.614;5.530;2023-02-14T18:05:14;102973.13;;;10.36;61.84
59789;BME280;47353;51.614;5.530;2023-02-14T18:07:40;102967.41;;;10.31;62.45
59789;BME280;47353;51.614;5.530;2023-02-14T18:10:05;102968.06;;;10.27;62.45
59789;BME280;47353;51.614;5.530;2023-02-14T18:12:31;102971.06;;;10.25;62.81
59789;BME280;47353;51.614;5.530;2023-02-14T18:14:56;102971.91;;;10.26;63.13
59789;BME280;47353;51.614;5.530;2023-02-14T18:17:22;102964.72;;;10.18;63.18
59789;BME280;47353;51.614;5.530;2023-02-14T18:19:47;102968.59;;;10.04;63.55
59789;BME280;47353;51.614;5.530;2023-02-14T18:22:13;102967.53;;;10.05;63.93
59789;BME280;47353;51.614;5.530;2023-02-14T18:24:39;102967.56;;;9.98;64.08
59789;BME280;47353;51.614;5.530;2023-02-14T18:27:04;102977.88;;;9.85;64.45
59789;BME280;47353;51.614;5.530;2023-02-14T18:29:30;102973.25;;;9.72;64.82
59789;BME280;47353;51.614;5.530;2023-02-14T18:31:56;102963.31;;;9.58;65.30
59789;BME280;47353;51.614;5.530;2023-02-14T18:34:21;102961.63;;;9.51;65.57
59789;BME280;47353;51.614;5.530;2023-02-14T18:36:47;102964.22;;;9.39;66.36
59789;BME280;47353;51.614;5.530;2023-02-14T18:39:12;102962.97;;;9.35;66.87
59789;BME280;47353;51.614;5.530;2023-02-14T18:41:38;102964.72;;;9.23;68.09
59789;BME280;47353;51.614;5.530;2023-02-14T18:44:04;102965.16;;;9.20;68.23
59789;BME280;47353;51.614;5.530;2023-02-14T18:46:31;102965.38;;;9.06;68.71
59789;BME280;47353;51.614;5.530;2023-02-14T18:48:59;102967.69;;;9.09;68.59
59789;BME280;47353;51.614;5.530;2023-02-14T18:51:30;102954.34;;;8.99;69.06
59789;BME280;47353;51.614;5.530;2023-02-14T18:53:57;102965.63;;;8.91;69.48
59789;BME280;47353;51.614;5.530;2023-02-14T18:56:25;102956.69;;;8.83;69.91
59789;BME280;47353;51.614;5.530;2023-02-14T18:58:58;102954.81;;;8.77;70.15
59789;BME280;47353;51.614;5.530;2023-02-14T19:01:27;102958.41;;;8.71;70.75
59789;BME280;47353;51.614;5.530;2023-02-14T19:03:57;102945.66;;;8.76;71.64
59789;BME280;47353;51.614;5.530;2023-02-14T19:06:25;102949.06;;;8.72;71.50
59789;BME280;47353;51.614;5.530;2023-02-14T19:08:51;102938.44;;;8.75;71.92
59789;BME280;47353;51.614;5.530;2023-02-14T19:11:20;102938.66;;;8.74;71.95
59789;BME280;47353;51.614;5.530;2023-02-14T19:13:47;102943.75;;;8.70;72.14
59789;BME280;47353;51.614;5.530;2023-02-14T19:16:15;102938.25;;;8.64;72.25
59789;BME280;47353;51.614;5.530;2023-02-14T19:18:41;102936.09;;;8.59;72.17
59789;BME280;47353;51.614;5.530;2023-02-14T19:21:18;102929.97;;;8.51;71.80
59789;BME280;47353;51.614;5.530;2023-02-14T19:23:45;102929.78;;;8.32;72.23
59789;BME280;47353;51.614;5.530;2023-02-14T19:26:12;102924.84;;;8.21;72.92
59789;BME280;47353;51.614;5.530;2023-02-14T19:28:39;102922.25;;;8.07;73.39
59789;BME280;47353;51.614;5.530;2023-02-14T19:31:04;102908.28;;;8.02;73.73
59789;BME280;47353;51.614;5.530;2023-02-14T19:33:29;102917.78;;;7.93;73.97
59789;BME280;47353;51.614;5.530;2023-02-14T19:35:59;102911.66;;;7.91;74.43
59789;BME280;47353;51.614;5.530;2023-02-14T19:38:25;102913.09;;;7.80;74.78
59789;BME280;47353;51.614;5.530;2023-02-14T19:40:51;102920.28;;;7.75;75.34
59789;BME280;47353;51.614;5.530;2023-02-14T19:43:16;102904.53;;;7.56;75.55
59789;BME280;47353;51.614;5.530;2023-02-14T19:45:42;102902.00;;;7.54;76.05
59789;BME280;47353;51.614;5.530;2023-02-14T19:48:08;102913.22;;;7.46;76.56
59789;BME280;47353;51.614;5.530;2023-02-14T19:50:33;102905.94;;;7.32;76.95
59789;BME280;47353;51.614;5.530;2023-02-14T19:52:59;102910.59;;;7.32;77.12
59789;BME280;47353;51.614;5.530;2023-02-14T19:55:24;102904.44;;;7.23;77.09
59789;BME280;47353;51.614;5.530;2023-02-14T19:57:51;102893.81;;;7.20;78.28
59789;BME280;47353;51.614;5.530;2023-02-14T20:00:18;102896.34;;;7.15;79.42
59789;BME280;47353;51.614;5.530;2023-02-14T20:02:45;102900.31;;;7.13;79.71
59789;BME280;47353;51.614;5.530;2023-02-14T20:05:13;102897.97;;;7.10;80.39
59789;BME280;47353;51.614;5.530;2023-02-14T20:07:39;102892.22;;;6.98;80.59
59789;BME280;47353;51.614;5.530;2023-02-14T20:10:05;102901.34;;;6.99;80.87
59789;BME280;47353;51.614;5.530;2023-02-14T20:12:30;102903.19;;;6.92;81.01
59789;BME280;47353;51.614;5.530;2023-02-14T20:14:56;102897.03;;;6.90;80.88
59789;BME280;47353;51.614;5.530;2023-02-14T20:17:21;102898.91;;;6.82;81.20
59789;BME280;47353;51.614;5.530;2023-02-14T20:19:47;102894.25;;;6.83;81.08
59789;BME280;47353;51.614;5.530;2023-02-14T20:22:13;102890.44;;;6.84;81.79
59789;BME280;47353;51.614;5.530;2023-02-14T20:24:38;102893.41;;;6.82;81.73
59789;BME280;47353;51.614;5.530;2023-02-14T20:27:04;102882.53;;;6.74;81.51
59789;BME280;47353;51.614;5.530;2023-02-14T20:29:29;102889.72;;;6.69;81.44
59789;BME280;47353;51.614;5.530;2023-02-14T20:31:57;102895.38;;;6.61;81.79
59789;BME280;47353;51.614;5.530;2023-02-14T20:34:23;102886.41;;;6.52;81.40
59789;BME280;47353;51.614;5.530;2023-02-14T20:36:49;102881.97;;;6.51;82.33
59789;BME280;47353;51.614;5.530;2023-02-14T20:39:18;102887.00;;;6.48;82.59
59789;BME280;47353;51.614;5.530;2023-02-14T20:41:44;102879.13;;;6.38;82.09
59789;BME280;47353;51.614;5.530;2023-02-14T20:44:15;102877.56;;;6.29;81.85
59789;BME280;47353;51.614;5.530;2023-02-14T20:46:44;102876.59;;;6.16;81.87
59789;BME280;47353;51.614;5.530;2023-02-14T20:49:10;102874.84;;;6.08;82.26
59789;BME280;47353;51.614;5.530;2023-02-14T20:51:35;102863.50;;;5.90;83.40
59789;BME280;47353;51.614;5.530;2023-02-14T20:54:02;102876.84;;;5.93;84.55
59789;BME280;47353;51.614;5.530;2023-02-14T20:56:27;102886.69;;;5.88;84.01
59789;BME280;47353;51.614;5.530;2023-02-14T20:58:53;102875.28;;;5.84;83.58
59789;BME280;47353;51.614;5.530;2023-02-14T21:01:21;102873.09;;;5.80;84.25
59789;BME280;47353;51.614;5.530;2023-02-14T21:03:48;102864.22;;;5.63;84.31
59789;BME280;47353;51.614;5.530;2023-02-14T21:06:18;102872.47;;;5.63;83.99
59789;BME280;47353;51.614;5.530;2023-02-14T21:08:44;102861.63;;;5.55;84.57
59789;BME280;47353;51.614;5.530;2023-02-14T21:11:12;102864.94;;;5.51;85.03
59789;BME280;47353;51.614;5.530;2023-02-14T21:13:37;102868.47;;;5.45;84.93
59789;BME280;47353;51.614;5.530;2023-02-14T21:16:14;102865.47;;;5.40;84.98
59789;BME280;47353;51.614;5.530;2023-02-14T21:18:40;102864.13;;;5.36;85.00
59789;BME280;47353;51.614;5.530;2023-02-14T21:21:17;102864.91;;;5.30;85.24
59789;BME280;47353;51.614;5.530;2023-02-14T21:23:42;102849.13;;;5.17;85.29
59789;BME280;47353;51.614;5.530;2023-02-14T21:26:08;102857.28;;;5.10;85.34
59789;BME280;47353;51.614;5.530;2023-02-14T21:28:33;102844.47;;;4.96;85.30
59789;BME280;47353;51.614;5.530;2023-02-14T21:31:07;102864.00;;;5.08;86.11
59789;BME280;47353;51.614;5.530;2023-02-14T21:33:34;102861.38;;;5.00;86.26
59789;BME280;47353;51.614;5.530;2023-02-14T21:36:12;102862.31;;;4.92;87.29
59789;BME280;47353;51.614;5.530;2023-02-14T21:38:38;102863.94;;;4.87;86.84
59789;BME280;47353;51.614;5.530;2023-02-14T21:41:15;102859.41;;;4.79;87.43
59789;BME280;47353;51.614;5.530;2023-02-14T21:43:42;102849.56;;;4.70;86.72
59789;BME280;47353;51.614;5.530;2023-02-14T21:46:19;102857.34;;;4.67;87.84
59789;BME280;47353;51.614;5.530;2023-02-14T21:48:45;102845.50;;;4.66;88.23
59789;BME280;47353;51.614;5.530;2023-02-14T21:51:30;102842.75;;;4.66;89.59
59789;BME280;47353;51.614;5.530;2023-02-14T21:53:57;102834.63;;;4.58;89.49
59789;BME280;47353;51.614;5.530;2023-02-14T21:56:24;102829.03;;;4.52;89.09
59789;BME280;47353;51.614;5.530;2023-02-14T21:58:51;102832.16;;;4.49;88.91
59789;BME280;47353;51.614;5.530;2023-02-14T22:01:21;102827.44;;;4.43;89.58
59789;BME280;47353;51.614;5.530;2023-02-14T22:03:47;102826.88;;;4.33;89.47
59789;BME280;47353;51.614;5.530;2023-02-14T22:06:13;102824.88;;;4.27;89.66
59789;BME280;47353;51.614;5.530;2023-02-14T22:08:40;102828.75;;;4.18;89.36
59789;BME280;47353;51.614;5.530;2023-02-14T22:11:08;102830.03;;;4.07;89.78
59789;BME280;47353;51.614;5.530;2023-02-14T22:13:34;102818.81;;;4.02;89.34
59789;BME280;47353;51.614;5.530;2023-02-14T22:16:12;102821.53;;;4.02;90.20
59789;BME280;47353;51.614;5.530;2023-02-14T22:18:37;102826.72;;;3.97;89.86
59789;BME280;47353;51.614;5.530;2023-02-14T22:21:05;102822.00;;;3.91;90.64
59789;BME280;47353;51.614;5.530;2023-02-14T22:23:32;102828.78;;;3.95;91.11
59789;BME280;47353;51.614;5.530;2023-02-14T22:26:12;102824.06;;;3.89;91.53
59789;BME280;47353;51.614;5.530;2023-02-14T22:28:38;102825.09;;;3.88;91.78
59789;BME280;47353;51.614;5.530;2023-02-14T22:31:03;102825.94;;;3.89;92.15
59789;BME280;47353;51.614;5.530;2023-02-14T22:33:29;102829.22;;;3.84;92.39
59789;BME280;47353;51.614;5.530;2023-02-14T22:35:56;102827.72;;;3.82;92.16
59789;BME280;47353;51.614;5.530;2023-02-14T22:38:21;102802.81;;;3.69;91.90
59789;BME280;47353;51.614;5.530;2023-02-14T22:40:47;102827.78;;;3.74;92.29
59789;BME280;47353;51.614;5.530;2023-02-14T22:43:12;102823.41;;;3.65;91.76
59789;BME280;47353;51.614;5.530;2023-02-14T22:45:37;102815.94;;;3.59;91.55
59789;BME280;47353;51.614;5.530;2023-02-14T22:48:03;102808.28;;;3.54;92.06
59789;BME280;47353;51.614;5.530;2023-02-14T22:50:28;102815.31;;;3.48;91.79
59789;BME280;47353;51.614;5.530;2023-02-14T22:52:54;102812.56;;;3.48;92.24
59789;BME280;47353;51.614;5.530;2023-02-14T22:55:20;102813.13;;;3.44;92.33
59789;BME280;47353;51.614;5.530;2023-02-14T22:57:46;102808.75;;;3.35;92.50
59789;BME280;47353;51.614;5.530;2023-02-14T23:00:11;102813.22;;;3.36;92.84
59789;BME280;47353;51.614;5.530;2023-02-14T23:02:37;102818.06;;;3.26;92.79
59789;BME280;47353;51.614;5.530;2023-02-14T23:05:03;102809.72;;;3.19;92.82
59789;BME280;47353;51.614;5.530;2023-02-14T23:07:28;102811.63;;;3.19;93.02